Time;durP1;ratioP1;P1;durP2;ratioP2;P2;SDS_P1;SDS_P2;PMS_P1;PMS_P2;Temp;Humidity;BMP_temperature;BMP_pressure;BME280_temperature;BME280_humidity;BME280_pressure;Samples;Min_cycle;Max_cycle;Signal;HPM_P1;HPM_P2
2021/09/15 00:01:53;;;;;;;5.87;5.30;;;19.90;99.90;;;;;;6119525;23;20577;-80
2021/09/15 00:04:40;;;;;;;6.30;5.63;;;19.90;99.90;;;;;;6117215;23;20589;-81
2021/09/15 00:07:23;;;;;;;6.20;5.70;;;20.00;99.90;;;;;;6118068;23;20570;-81
2021/09/15 00:10:05;;;;;;;7.40;6.83;;;20.00;99.90;;;;;;6119478;23;20561;-81
2021/09/15 00:12:46;;;;;;;6.70;6.20;;;20.00;99.90;;;;;;6119271;23;20559;-81
2021/09/15 00:15:32;;;;;;;6.57;5.97;;;20.00;99.90;;;;;;6119717;23;20663;-80
2021/09/15 00:18:15;;;;;;;6.93;6.30;;;20.00;99.90;;;;;;6118536;23;21145;-81
2021/09/15 00:21:02;;;;;;;6.90;6.30;;;20.00;99.90;;;;;;6117400;22;20666;-81
2021/09/15 00:23:50;;;;;;;6.50;5.90;;;19.90;99.90;;;;;;6117389;22;20662;-80
2021/09/15 00:26:24;;;;;;;7.13;6.53;;;19.90;99.90;;;;;;6119202;23;20961;-81
2021/09/15 00:29:04;;;;;;;6.40;5.90;;;19.90;99.90;;;;;;6118951;23;20664;-81
2021/09/15 00:31:43;;;;;;;6.23;5.73;;;19.90;99.90;;;;;;6119326;23;20587;-81
2021/09/15 00:34:30;;;;;;;7.30;6.70;;;20.00;99.90;;;;;;6117746;23;20684;-81
2021/09/15 00:37:02;;;;;;;7.07;6.53;;;20.00;99.90;;;;;;6118985;23;20557;-81
2021/09/15 00:39:50;;;;;;;6.17;5.67;;;20.00;99.90;;;;;;6118070;23;20986;-81
2021/09/15 00:42:37;;;;;;;7.33;6.67;;;20.00;99.90;;;;;;6117688;23;20679;-81
2021/09/15 00:45:18;;;;;;;7.40;6.70;;;20.00;99.90;;;;;;6119345;23;20554;-81
2021/09/15 00:48:06;;;;;;;6.93;6.33;;;20.00;99.90;;;;;;6117263;23;20594;-81
2021/09/15 00:50:51;;;;;;;8.50;6.70;;;20.00;99.90;;;;;;6112228;23;20607;-81
2021/09/15 00:53:35;;;;;;;7.13;6.53;;;20.00;99.90;;;;;;6119049;23;20582;-81
2021/09/15 00:56:26;;;;;;;7.57;6.30;;;20.00;99.90;;;;;;6117312;22;20612;-81
2021/09/15 00:59:05;;;;;;;7.67;6.47;;;19.90;99.90;;;;;;6119798;23;20559;-81
2021/09/15 01:01:50;;;;;;;9.00;6.70;;;19.90;99.90;;;;;;6119091;23;20624;-81
2021/09/15 01:04:38;;;;;;;7.57;6.80;;;19.90;99.90;;;;;;6115939;23;20685;-80
2021/09/15 01:07:25;;;;;;;7.87;7.17;;;19.90;99.90;;;;;;6117062;23;20634;-80
2021/09/15 01:10:12;;;;;;;7.93;7.23;;;19.80;99.90;;;;;;6117813;23;20677;-81
2021/09/15 01:13:01;;;;;;;6.87;6.37;;;19.80;99.90;;;;;;6118159;22;20570;-80
2021/09/15 01:15:47;;;;;;;7.47;6.97;;;19.80;99.90;;;;;;6117590;22;20601;-80
2021/09/15 01:18:34;;;;;;;7.37;6.77;;;19.90;99.90;;;;;;6116542;23;20574;-80
2021/09/15 01:21:23;;;;;;;7.40;6.87;;;19.80;99.90;;;;;;6118738;23;20590;-80
2021/09/15 01:24:10;;;;;;;8.23;7.53;;;19.70;99.90;;;;;;6118894;23;21222;-80
2021/09/15 01:26:58;;;;;;;7.50;6.80;;;19.50;99.90;;;;;;6117050;22;20633;-80
2021/09/15 01:29:45;;;;;;;9.97;7.67;;;19.60;99.90;;;;;;6117926;23;20961;-81
2021/09/15 01:32:32;;;;;;;7.43;6.73;;;19.70;99.90;;;;;;6117814;23;20600;-80
2021/09/15 01:35:17;;;;;;;8.50;7.90;;;19.70;99.90;;;;;;6118710;23;20641;-79
2021/09/15 01:38:06;;;;;;;7.43;6.73;;;19.70;99.90;;;;;;6116922;23;20676;-80
2021/09/15 01:40:53;;;;;;;8.03;7.13;;;19.60;99.90;;;;;;6117933;23;20622;-80
2021/09/15 01:43:39;;;;;;;7.77;6.97;;;19.70;99.90;;;;;;6118347;23;21133;-80
2021/09/15 01:46:26;;;;;;;7.83;7.13;;;19.70;99.90;;;;;;6116668;23;20645;-81
2021/09/15 01:49:13;;;;;;;8.13;7.43;;;19.80;99.90;;;;;;6117559;23;20977;-81
2021/09/15 01:52:01;;;;;;;8.70;7.20;;;19.70;99.90;;;;;;6117300;23;20678;-80
2021/09/15 01:54:47;;;;;;;8.80;8.00;;;19.70;99.90;;;;;;6119246;23;20554;-80
2021/09/15 01:57:30;;;;;;;7.97;6.73;;;19.60;99.90;;;;;;6118267;23;21094;-81
2021/09/15 02:00:17;;;;;;;8.07;6.20;;;19.60;99.90;;;;;;6118017;23;20629;-81
2021/09/15 02:03:04;;;;;;;7.00;6.33;;;19.60;99.90;;;;;;6117621;23;21226;-80
2021/09/15 02:05:51;;;;;;;6.70;6.20;;;19.60;99.90;;;;;;6116037;23;20596;-81
2021/09/15 02:08:31;;;;;;;7.53;6.90;;;19.60;99.90;;;;;;6118121;23;20561;-81
2021/09/15 02:11:19;;;;;;;7.70;6.90;;;19.60;99.90;;;;;;6118410;23;20644;-81
2021/09/15 02:14:06;;;;;;;8.80;8.10;;;19.70;99.90;;;;;;6118717;23;20680;-81
2021/09/15 02:16:54;;;;;;;7.80;7.20;;;19.70;99.90;;;;;;6116778;23;20625;-81
2021/09/15 02:19:41;;;;;;;8.60;7.67;;;19.70;99.90;;;;;;6117197;23;20612;-81
2021/09/15 02:22:26;;;;;;;8.43;7.70;;;19.80;99.90;;;;;;6118733;23;20930;-81
2021/09/15 02:25:12;;;;;;;7.80;7.20;;;19.80;99.90;;;;;;6118915;23;20555;-80
2021/09/15 02:27:57;;;;;;;8.27;7.43;;;19.70;99.90;;;;;;6118070;23;20690;-81
2021/09/15 02:30:35;;;;;;;9.17;8.33;;;19.60;99.90;;;;;;6118464;23;20881;-81
2021/09/15 02:33:21;;;;;;;8.57;7.70;;;19.60;99.90;;;;;;6118432;23;20605;-81
2021/09/15 02:36:08;;;;;;;8.17;7.40;;;19.60;99.90;;;;;;6118116;23;20581;-81
2021/09/15 02:38:55;;;;;;;7.60;7.00;;;19.70;99.90;;;;;;6118048;23;21285;-81
2021/09/15 02:41:42;;;;;;;9.03;8.27;;;19.60;99.90;;;;;;6117031;22;20674;-81
2021/09/15 02:44:30;;;;;;;8.63;7.70;;;19.50;99.90;;;;;;6116757;23;20717;-81
2021/09/15 02:47:16;;;;;;;8.33;7.73;;;19.40;99.90;;;;;;6117658;23;20582;-81
2021/09/15 02:50:04;;;;;;;8.37;7.67;;;19.40;99.90;;;;;;6116900;23;21135;-80
2021/09/15 02:52:44;;;;;;;7.83;7.13;;;19.40;99.90;;;;;;6119170;23;20612;-81
2021/09/15 02:55:19;;;;;;;7.60;7.03;;;19.50;99.90;;;;;;6118408;23;20564;-81
2021/09/15 02:58:07;;;;;;;8.80;8.10;;;19.50;99.90;;;;;;6118302;23;20693;-80
2021/09/15 03:00:50;;;;;;;9.70;8.90;;;19.50;99.90;;;;;;6118445;23;20578;-81
2021/09/15 03:03:37;;;;;;;7.53;6.90;;;19.50;99.90;;;;;;6116766;23;20621;-81
2021/09/15 03:06:21;;;;;;;9.20;8.40;;;19.50;99.90;;;;;;6116525;23;20565;-80
2021/09/15 03:09:08;;;;;;;8.03;7.37;;;19.50;99.90;;;;;;6116567;23;20609;-81
2021/09/15 03:11:55;;;;;;;7.57;6.97;;;19.50;99.90;;;;;;6116853;23;20741;-81
2021/09/15 03:14:41;;;;;;;7.80;7.13;;;19.50;99.90;;;;;;6118202;23;20612;-80
2021/09/15 03:17:30;;;;;;;8.27;7.57;;;19.60;99.90;;;;;;6117601;23;20629;-81
2021/09/15 03:20:17;;;;;;;9.33;8.53;;;19.60;99.90;;;;;;6117210;23;20590;-80
2021/09/15 03:23:04;;;;;;;10.10;8.00;;;19.80;99.90;;;;;;6117891;23;21145;-81
2021/09/15 03:25:51;;;;;;;8.17;7.43;;;19.80;99.90;;;;;;6116612;23;20656;-81
2021/09/15 03:28:33;;;;;;;8.73;7.90;;;19.80;99.90;;;;;;6117414;23;20663;-80
2021/09/15 03:31:20;;;;;;;7.90;7.20;;;19.80;99.90;;;;;;6116549;23;20566;-81
2021/09/15 03:34:08;;;;;;;8.07;7.40;;;19.70;99.90;;;;;;6116389;22;20572;-81
2021/09/15 03:36:58;;;;;;;8.03;7.33;;;19.80;99.90;;;;;;6116012;22;20597;-82
2021/09/15 03:39:49;;;;;;;8.23;7.43;;;19.80;99.90;;;;;;6116894;23;20617;-83
2021/09/15 03:42:36;;;;;;;9.00;8.13;;;19.80;99.90;;;;;;6117094;23;20581;-82
2021/09/15 03:45:23;;;;;;;7.97;7.17;;;19.70;99.90;;;;;;6117225;23;20593;-81
2021/09/15 03:48:10;;;;;;;8.27;7.50;;;19.60;99.90;;;;;;6110295;23;20660;-81
2021/09/15 03:50:58;;;;;;;8.43;7.73;;;19.60;99.90;;;;;;6118171;22;20600;-82
2021/09/15 03:53:45;;;;;;;7.90;7.20;;;19.60;99.90;;;;;;6117626;23;20618;-81
2021/09/15 03:56:32;;;;;;;7.50;6.90;;;19.50;99.90;;;;;;6117340;23;20653;-82
2021/09/15 03:59:19;;;;;;;7.77;6.97;;;19.50;99.90;;;;;;6117974;23;20651;-82
2021/09/15 04:02:06;;;;;;;7.33;6.70;;;19.40;99.90;;;;;;6117538;22;21089;-82
2021/09/15 04:04:53;;;;;;;8.13;7.43;;;19.40;99.90;;;;;;6118555;23;20629;-82
2021/09/15 04:07:37;;;;;;;7.57;6.77;;;19.40;99.90;;;;;;6119103;23;20590;-83
2021/09/15 04:10:24;;;;;;;8.33;7.40;;;19.40;99.90;;;;;;6117120;23;20585;-82
2021/09/15 04:13:14;;;;;;;7.70;7.00;;;19.40;99.90;;;;;;6117720;23;20681;-82
2021/09/15 04:16:01;;;;;;;7.67;7.07;;;19.30;99.90;;;;;;6117867;23;20618;-82
2021/09/15 04:18:47;;;;;;;7.60;6.90;;;19.30;99.90;;;;;;6116086;22;20612;-82
2021/09/15 04:21:34;;;;;;;10.67;6.70;;;19.20;99.90;;;;;;6117047;23;20594;-82
2021/09/15 04:33:21;;;;;;;7.70;7.10;;;19.20;99.90;;;;;;6119195;23;20637;-82
2021/09/15 04:36:08;;;;;;;7.07;6.57;;;19.20;99.90;;;;;;6118120;23;20865;-81
2021/09/15 04:38:57;;;;;;;8.13;7.23;;;19.30;99.90;;;;;;6118902;23;20620;-82
2021/09/15 04:41:37;;;;;;;8.07;7.27;;;19.30;99.90;;;;;;6118975;23;20926;-82
2021/09/15 04:44:22;;;;;;;9.27;8.33;;;19.30;99.90;;;;;;6118918;23;20612;-82
2021/09/15 04:46:55;;;;;;;7.57;7.07;;;19.30;99.90;;;;;;6118751;23;20892;-82
2021/09/15 04:49:30;;;;;;;7.47;6.83;;;19.20;99.90;;;;;;6117375;23;20623;-83
2021/09/15 04:52:05;;;;;;;8.67;7.50;;;19.30;99.90;;;;;;6118324;23;20611;-83
2021/09/15 04:54:42;;;;;;;7.20;6.50;;;19.20;99.90;;;;;;6118714;23;20562;-83
2021/09/15 04:57:26;;;;;;;7.60;6.80;;;19.20;99.90;;;;;;6119221;23;20620;-82
2021/09/15 05:00:06;;;;;;;8.90;6.83;;;19.30;99.90;;;;;;6119385;23;20536;-83
2021/09/15 05:02:53;;;;;;;7.77;7.17;;;19.20;99.90;;;;;;6117578;23;20627;-82
2021/09/15 05:05:40;;;;;;;8.37;6.60;;;19.20;99.90;;;;;;6118288;23;20570;-82
2021/09/15 05:08:27;;;;;;;8.40;7.60;;;19.10;99.90;;;;;;6117391;23;20665;-82
2021/09/15 05:11:10;;;;;;;7.80;6.60;;;19.10;99.90;;;;;;6115042;23;20541;-82
2021/09/15 05:13:58;;;;;;;8.40;7.70;;;19.20;99.90;;;;;;6117379;23;20680;-83
2021/09/15 05:16:44;;;;;;;9.10;7.90;;;19.10;99.90;;;;;;6118225;23;20617;-83
2021/09/15 05:19:31;;;;;;;8.30;7.50;;;19.10;99.90;;;;;;6117884;23;20595;-83
2021/09/15 05:22:18;;;;;;;7.93;7.03;;;19.00;99.90;;;;;;6116928;23;20574;-83
2021/09/15 05:25:06;;;;;;;7.17;6.57;;;19.00;99.90;;;;;;6116241;23;20582;-83
2021/09/15 05:27:54;;;;;;;7.80;7.00;;;19.00;99.90;;;;;;6115578;23;20740;-83
2021/09/15 05:30:37;;;;;;;7.90;7.20;;;19.00;99.90;;;;;;6118259;23;20614;-84
2021/09/15 05:33:25;;;;;;;10.17;8.90;;;19.00;99.90;;;;;;6116564;23;20635;-83
2021/09/15 05:36:12;;;;;;;10.00;7.63;;;19.00;99.90;;;;;;6117987;22;20593;-83
2021/09/15 05:38:59;;;;;;;9.43;8.33;;;19.00;99.90;;;;;;6117880;22;20570;-83
2021/09/15 05:41:46;;;;;;;8.43;7.40;;;19.00;99.90;;;;;;6116275;23;20967;-82
2021/09/15 05:44:58;;;;;;;8.07;7.37;;;18.90;99.90;;;;;;6116541;23;21127;-82
2021/09/15 05:47:46;;;;;;;8.60;7.80;;;18.90;99.90;;;;;;6116305;22;20661;-82
2021/09/15 05:50:26;;;;;;;9.77;8.63;;;18.80;99.90;;;;;;6118904;23;20554;-82
2021/09/15 05:53:00;;;;;;;9.80;9.00;;;18.90;99.90;;;;;;6115472;23;21094;-82
2021/09/15 05:55:47;;;;;;;10.47;9.33;;;18.90;99.90;;;;;;6113966;23;21340;-83
2021/09/15 05:58:33;;;;;;;7.87;7.17;;;19.00;99.90;;;;;;6109659;22;20574;-82
2021/09/15 06:01:20;;;;;;;15.60;8.47;;;18.90;99.90;;;;;;6115405;23;20609;-83
2021/09/15 06:04:12;;;;;;;9.40;8.50;;;18.90;99.90;;;;;;6115148;23;20632;-82
2021/09/15 06:07:05;;;;;;;10.50;8.10;;;18.80;99.90;;;;;;6118026;22;20586;-83
2021/09/15 06:09:50;;;;;;;11.40;9.27;;;18.90;99.90;;;;;;6114675;23;21165;-82
2021/09/15 06:12:33;;;;;;;10.57;9.53;;;18.80;99.90;;;;;;6116803;23;20542;-83
2021/09/15 06:15:22;;;;;;;10.10;9.13;;;18.80;99.90;;;;;;6117023;22;20688;-84
2021/09/15 06:18:09;;;;;;;10.77;8.60;;;18.80;99.90;;;;;;6115896;23;20620;-85
2021/09/15 06:20:59;;;;;;;9.27;8.30;;;18.80;99.90;;;;;;6118048;23;20632;-85
2021/09/15 06:23:38;;;;;;;10.90;9.80;;;18.70;99.90;;;;;;6117792;22;20656;-84
2021/09/15 06:26:27;;;;;;;11.30;9.60;;;18.80;99.90;;;;;;6109506;23;20610;-84
2021/09/15 06:29:06;;;;;;;9.67;8.60;;;18.80;99.90;;;;;;6117671;23;20614;-86
2021/09/15 06:31:53;;;;;;;10.97;9.83;;;18.70;99.90;;;;;;6117012;23;20657;-86
2021/09/15 06:34:38;;;;;;;10.00;9.03;;;18.80;99.90;;;;;;6118498;23;20535;-85
2021/09/15 06:37:18;;;;;;;9.53;8.63;;;18.90;99.90;;;;;;6118547;23;20539;-84
2021/09/15 06:40:06;;;;;;;9.13;8.33;;;18.80;99.90;;;;;;6118457;23;20552;-84
2021/09/15 06:42:53;;;;;;;9.93;8.90;;;18.80;99.90;;;;;;6118335;23;20594;-85
2021/09/15 06:45:39;;;;;;;10.20;9.30;;;18.80;99.90;;;;;;6116548;23;20643;-85
2021/09/15 06:48:26;;;;;;;10.97;9.50;;;18.80;99.90;;;;;;6115525;23;20713;-84
2021/09/15 06:51:13;;;;;;;9.60;8.70;;;18.80;99.90;;;;;;6117570;22;20676;-86
2021/09/15 06:54:01;;;;;;;10.33;9.40;;;18.70;99.90;;;;;;6116157;23;20582;-84
2021/09/15 06:56:45;;;;;;;12.33;9.37;;;18.70;99.90;;;;;;6116935;23;20886;-85
2021/09/15 06:59:32;;;;;;;10.00;9.00;;;18.80;99.90;;;;;;6117742;22;20910;-85
2021/09/15 07:02:19;;;;;;;9.10;8.10;;;18.80;99.90;;;;;;6115903;23;20895;-84
2021/09/15 07:05:25;;;;;;;11.03;10.03;;;18.80;99.90;;;;;;6116424;23;20679;-86
2021/09/15 07:08:12;;;;;;;11.40;8.73;;;18.80;99.90;;;;;;6115167;23;20923;-84
2021/09/15 07:11:01;;;;;;;9.80;8.50;;;18.80;99.90;;;;;;6116586;23;20617;-84
2021/09/15 07:13:48;;;;;;;9.90;8.90;;;18.80;99.90;;;;;;6115826;22;20644;-84
2021/09/15 07:16:38;;;;;;;10.13;9.00;;;18.80;99.90;;;;;;6114083;23;20585;-84
2021/09/15 07:19:20;;;;;;;10.03;9.03;;;18.80;99.90;;;;;;6118799;23;20530;-84
2021/09/15 07:22:02;;;;;;;11.33;9.17;;;18.80;99.90;;;;;;6119192;23;20588;-86
2021/09/15 07:25:11;;;;;;;9.30;8.40;;;18.80;99.90;;;;;;6119663;23;20562;-85
2021/09/15 07:27:49;;;;;;;9.00;8.13;;;18.80;99.90;;;;;;6110633;22;20656;-84
2021/09/15 07:30:27;;;;;;;8.87;7.93;;;18.90;99.90;;;;;;6119268;23;20534;-84
2021/09/15 07:33:06;;;;;;;11.10;8.30;;;19.00;99.90;;;;;;6118838;23;20658;-83
2021/09/15 07:35:53;;;;;;;11.37;6.97;;;19.00;99.90;;;;;;6110777;23;20602;-83
2021/09/15 07:38:31;;;;;;;8.00;7.20;;;19.10;99.90;;;;;;6118171;23;20574;-86
2021/09/15 07:41:16;;;;;;;9.07;8.17;;;19.10;99.90;;;;;;6117332;23;20577;-83
2021/09/15 07:44:02;;;;;;;8.40;6.87;;;19.10;99.90;;;;;;6118592;23;20903;-84
2021/09/15 07:46:48;;;;;;;6.97;6.27;;;19.20;99.90;;;;;;6119673;23;20560;-83
2021/09/15 07:49:32;;;;;;;8.23;7.37;;;19.20;99.90;;;;;;6118632;23;20659;-83
2021/09/15 07:52:18;;;;;;;7.50;6.80;;;19.20;99.90;;;;;;6119574;23;21054;-83
2021/09/15 07:54:58;;;;;;;9.70;5.43;;;19.20;99.90;;;;;;6118831;23;20572;-83
2021/09/15 07:57:47;;;;;;;10.13;7.40;;;19.10;99.90;;;;;;6117057;23;20643;-83
2021/09/15 08:00:35;;;;;;;8.00;5.13;;;19.20;99.90;;;;;;6117115;23;20593;-83
2021/09/15 08:03:25;;;;;;;6.53;6.03;;;19.20;99.90;;;;;;6117090;23;20601;-83
2021/09/15 08:06:12;;;;;;;6.00;5.50;;;19.30;99.90;;;;;;6116861;23;20628;-84
2021/09/15 08:08:58;;;;;;;5.50;5.00;;;19.30;99.90;;;;;;6115619;23;21117;-84
2021/09/15 08:12:18;;;;;;;6.50;5.80;;;19.30;99.90;;;;;;6117625;23;20589;-89
2021/09/15 08:15:01;;;;;;;5.50;4.93;;;19.40;99.90;;;;;;6121026;22;20976;-83
2021/09/15 08:17:52;;;;;;;5.50;5.00;;;19.40;99.90;;;;;;6115823;23;20990;-85
2021/09/15 08:20:38;;;;;;;6.70;5.80;;;19.40;99.90;;;;;;6116590;23;20981;-85
2021/09/15 08:23:26;;;;;;;5.97;5.03;;;19.40;99.90;;;;;;6116698;23;20570;-84
2021/09/15 08:26:12;;;;;;;12.17;6.87;;;19.30;99.90;;;;;;6112974;23;20602;-85
2021/09/15 08:28:59;;;;;;;6.90;6.20;;;19.40;99.90;;;;;;6116672;23;20630;-84
2021/09/15 08:31:46;;;;;;;8.40;7.37;;;19.30;99.90;;;;;;6119316;23;20680;-84
2021/09/15 08:34:35;;;;;;;9.60;6.70;;;19.30;99.90;;;;;;6117608;23;20677;-84
2021/09/15 08:37:13;;;;;;;6.93;6.33;;;19.40;99.90;;;;;;6118081;23;20554;-84
2021/09/15 08:40:00;;;;;;;6.20;5.57;;;19.40;99.90;;;;;;6117529;22;20590;-85
2021/09/15 08:42:47;;;;;;;6.87;6.20;;;19.40;99.90;;;;;;6111027;23;20629;-84
2021/09/15 08:45:33;;;;;;;7.80;7.10;;;19.20;99.90;;;;;;6118594;23;20558;-85
2021/09/15 08:48:21;;;;;;;8.70;7.80;;;19.20;99.90;;;;;;6117047;23;21135;-87
2021/09/15 08:51:06;;;;;;;7.60;6.90;;;19.20;99.90;;;;;;6117134;22;20566;-88
2021/09/15 08:54:00;;;;;;;7.87;7.10;;;19.10;99.90;;;;;;6116887;23;20570;-88
2021/09/15 08:56:54;;;;;;;9.53;7.40;;;19.10;99.90;;;;;;6118623;23;20673;-90
2021/09/15 08:59:41;;;;;;;7.50;6.80;;;19.20;99.90;;;;;;6119410;23;20582;-87
2021/09/15 09:02:36;;;;;;;9.57;7.43;;;19.00;99.90;;;;;;6119661;23;20581;-89
2021/09/15 09:05:39;;;;;;;9.97;6.33;;;18.90;99.90;;;;;;6115256;22;20621;-90
2021/09/15 09:08:28;;;;;;;7.00;6.30;;;18.80;99.90;;;;;;6118928;22;20998;-90
2021/09/15 09:11:23;;;;;;;6.53;6.03;;;18.70;99.90;;;;;;6120172;22;20677;-92
2021/09/15 09:14:07;;;;;;;9.97;6.80;;;18.80;99.90;;;;;;6120460;22;21091;-90
2021/09/15 09:16:54;;;;;;;7.97;6.83;;;18.80;99.90;;;;;;6118031;22;20617;-89
2021/09/15 09:19:41;;;;;;;7.30;6.50;;;18.80;99.90;;;;;;6117792;22;20593;-87
2021/09/15 09:22:26;;;;;;;7.10;6.47;;;18.70;99.90;;;;;;6118716;22;21106;-87
2021/09/15 09:25:20;;;;;;;11.90;6.37;;;18.70;99.90;;;;;;6118964;23;20657;-85
2021/09/15 09:28:18;;;;;;;7.73;6.70;;;18.70;99.90;;;;;;6117663;23;20757;-86
2021/09/15 09:31:07;;;;;;;8.27;7.47;;;18.70;99.90;;;;;;6117843;23;20633;-86
2021/09/15 09:34:04;;;;;;;8.03;7.23;;;18.60;99.90;;;;;;6111124;22;20638;-86
2021/09/15 09:36:56;;;;;;;7.20;6.50;;;18.60;99.90;;;;;;6117934;23;20582;-87
2021/09/15 09:39:41;;;;;;;7.60;6.90;;;18.60;99.90;;;;;;6118162;23;20557;-87
2021/09/15 09:42:35;;;;;;;7.60;6.80;;;18.60;99.90;;;;;;6119232;22;20948;-87
2021/09/15 09:45:21;;;;;;;7.70;7.03;;;18.70;99.90;;;;;;6119207;22;20585;-89
2021/09/15 09:48:01;;;;;;;9.83;7.23;;;18.80;99.90;;;;;;6118789;22;20582;-89
2021/09/15 09:50:40;;;;;;;7.73;6.93;;;18.80;99.90;;;;;;6119137;22;20631;-89
2021/09/15 09:53:22;;;;;;;8.83;6.40;;;19.00;99.90;;;;;;6119180;22;20594;-89
2021/09/15 09:55:58;;;;;;;6.97;6.27;;;19.00;99.90;;;;;;6118860;23;21098;-89
2021/09/15 09:58:48;;;;;;;7.40;6.70;;;19.10;99.90;;;;;;6118507;22;20592;-89
2021/09/15 10:01:41;;;;;;;7.27;6.10;;;19.10;99.90;;;;;;6118494;23;20671;-90
2021/09/15 10:04:28;;;;;;;6.77;5.87;;;19.20;99.90;;;;;;6120649;23;20566;-89
2021/09/15 10:07:21;;;;;;;7.23;6.43;;;19.30;99.90;;;;;;6118611;23;20586;-89
2021/09/15 10:10:02;;;;;;;7.27;6.53;;;19.40;99.90;;;;;;6116104;22;21162;-90
2021/09/15 10:12:51;;;;;;;6.87;6.17;;;19.50;99.90;;;;;;6118357;23;20601;-89
2021/09/15 10:16:03;;;;;;;7.80;6.73;;;19.70;99.90;;;;;;6119028;23;20668;-90
2021/09/15 10:19:03;;;;;;;5.87;5.37;;;19.80;99.90;;;;;;6133472;23;20954;-90
2021/09/15 10:21:57;;;;;;;8.13;6.23;;;19.80;99.90;;;;;;6118708;23;20566;-89
2021/09/15 10:25:06;;;;;;;6.77;6.13;;;19.80;99.90;;;;;;6118727;22;20582;-89
2021/09/15 10:28:04;;;;;;;8.93;5.83;;;19.90;99.90;;;;;;6119128;22;20704;-88
2021/09/15 10:30:53;;;;;;;6.53;6.03;;;20.10;99.90;;;;;;6118816;23;20576;-87
2021/09/15 10:33:50;;;;;;;7.10;6.40;;;20.10;99.90;;;;;;6117739;23;20579;-88
2021/09/15 10:36:43;;;;;;;6.27;5.67;;;20.20;99.90;;;;;;6117487;23;20622;-90
2021/09/15 10:39:28;;;;;;;6.23;5.70;;;20.20;99.90;;;;;;6118372;22;20590;-87
2021/09/15 10:42:38;;;;;;;6.67;6.07;;;20.20;99.90;;;;;;6116977;22;20598;-89
2021/09/15 10:45:30;;;;;;;7.60;6.70;;;20.10;99.90;;;;;;6117515;23;20565;-89
2021/09/15 10:48:17;;;;;;;7.07;6.47;;;20.00;99.90;;;;;;6116717;23;20697;-87
2021/09/15 10:51:19;;;;;;;7.53;6.80;;;20.00;99.90;;;;;;6116254;23;20585;-88
2021/09/15 10:54:42;;;;;;;6.00;5.50;;;19.90;99.90;;;;;;6115252;23;21171;-88
2021/09/15 10:57:31;;;;;;;6.37;5.87;;;19.90;99.90;;;;;;6115624;22;20612;-88
2021/09/15 11:00:26;;;;;;;6.97;6.27;;;20.00;99.90;;;;;;6115174;22;20923;-87
2021/09/15 11:03:31;;;;;;;6.53;6.07;;;20.10;99.90;;;;;;6116246;23;20555;-87
2021/09/15 11:06:25;;;;;;;6.10;5.60;;;20.30;99.90;;;;;;6116752;22;21194;-87
2021/09/15 11:09:38;;;;;;;7.90;6.40;;;20.50;99.90;;;;;;6119751;22;20614;-88
2021/09/15 11:12:47;;;;;;;6.43;5.93;;;20.50;99.90;;;;;;6119882;22;20574;-87
2021/09/15 11:15:31;;;;;;;6.50;6.00;;;20.50;99.90;;;;;;6118874;22;20652;-89
2021/09/15 11:18:24;;;;;;;7.27;6.33;;;20.40;99.90;;;;;;6118786;23;20590;-88
2021/09/15 11:21:19;;;;;;;6.37;5.77;;;20.40;99.90;;;;;;6119494;22;20983;-88
2021/09/15 11:24:15;;;;;;;7.97;6.67;;;20.30;99.90;;;;;;6117623;23;20658;-88
2021/09/15 11:26:57;;;;;;;9.20;6.27;;;20.40;99.90;;;;;;6116133;22;20583;-88
2021/09/15 11:29:51;;;;;;;7.50;6.63;;;20.40;99.90;;;;;;6120755;23;20729;-88
2021/09/15 11:32:35;;;;;;;7.17;6.40;;;20.30;99.90;;;;;;6118711;23;20532;-88
2021/09/15 11:35:34;;;;;;;9.13;5.77;;;20.30;99.90;;;;;;6118452;22;20587;-90
2021/09/15 11:38:16;;;;;;;6.93;5.77;;;20.40;99.90;;;;;;6117788;22;20602;-87
2021/09/15 11:41:06;;;;;;;6.40;5.87;;;20.30;99.90;;;;;;6119319;22;20574;-87
2021/09/15 11:43:45;;;;;;;5.97;5.47;;;20.20;99.90;;;;;;6118543;23;20573;-87
2021/09/15 11:46:45;;;;;;;6.97;6.37;;;20.20;99.90;;;;;;6118697;23;20570;-88
2021/09/15 11:49:43;;;;;;;5.93;5.47;;;20.20;99.90;;;;;;6119275;22;20705;-88
2021/09/15 11:52:19;;;;;;;7.20;6.50;;;20.20;99.90;;;;;;6119488;22;20579;-89
2021/09/15 11:55:10;;;;;;;7.53;5.37;;;20.20;99.90;;;;;;6120530;22;20984;-90
2021/09/15 11:58:01;;;;;;;7.93;6.10;;;20.20;99.90;;;;;;6122578;22;21191;-87
2021/09/15 12:00:35;;;;;;;7.20;6.50;;;20.30;99.90;;;;;;6117700;23;20533;-88
2021/09/15 12:03:27;;;;;;;5.80;5.30;;;20.40;99.90;;;;;;6116158;23;20587;-89
2021/09/15 12:06:17;;;;;;;8.00;6.23;;;20.40;99.90;;;;;;6116681;23;20590;-89
2021/09/15 12:09:06;;;;;;;5.87;5.30;;;20.50;99.90;;;;;;6117943;23;20627;-88
2021/09/15 12:11:54;;;;;;;7.07;6.37;;;20.50;99.90;;;;;;6116664;23;21201;-88
2021/09/15 12:14:45;;;;;;;7.83;5.33;;;20.40;99.90;;;;;;6117435;23;20648;-88
2021/09/15 12:17:31;;;;;;;7.63;6.60;;;20.50;99.90;;;;;;6116716;23;20628;-87
2021/09/15 12:20:38;;;;;;;6.83;6.20;;;20.50;99.90;;;;;;6116548;23;20612;-86
2021/09/15 12:23:34;;;;;;;6.30;5.80;;;20.40;99.90;;;;;;6117475;23;20578;-87
2021/09/15 12:26:25;;;;;;;6.23;5.63;;;20.40;99.90;;;;;;6114553;23;20587;-87
2021/09/15 12:29:15;;;;;;;6.27;5.43;;;20.50;99.90;;;;;;6120053;23;20651;-87
2021/09/15 12:32:04;;;;;;;7.20;6.50;;;20.40;99.90;;;;;;6116792;23;20672;-87
2021/09/15 12:34:51;;;;;;;6.60;5.90;;;20.40;99.90;;;;;;6116460;23;20646;-87
2021/09/15 12:37:39;;;;;;;7.50;6.90;;;20.50;99.90;;;;;;6117283;23;20591;-87
2021/09/15 12:40:27;;;;;;;6.57;6.03;;;20.70;99.90;;;;;;6115393;23;20670;-87
2021/09/15 12:43:16;;;;;;;6.60;6.00;;;20.80;99.90;;;;;;6118014;23;20605;-87
2021/09/15 12:46:03;;;;;;;5.53;5.03;;;20.80;99.90;;;;;;6117886;23;20577;-86
2021/09/15 12:48:52;;;;;;;6.60;5.87;;;21.00;99.90;;;;;;6113776;23;20896;-86
2021/09/15 12:51:39;;;;;;;5.30;4.80;;;21.00;99.90;;;;;;6115911;23;20580;-86
2021/09/15 12:54:27;;;;;;;6.57;5.90;;;21.00;99.90;;;;;;6116357;22;20635;-86
2021/09/15 12:57:16;;;;;;;5.90;5.37;;;21.10;99.90;;;;;;6115944;22;20565;-86
2021/09/15 13:00:19;;;;;;;6.67;6.00;;;21.30;99.90;;;;;;6117064;23;20632;-88
2021/09/15 13:03:08;;;;;;;5.53;5.03;;;21.40;99.90;;;;;;6114290;23;20603;-88
2021/09/15 13:05:56;;;;;;;6.20;5.70;;;21.70;99.90;;;;;;6116374;23;20682;-85
2021/09/15 13:08:48;;;;;;;6.23;5.73;;;22.00;99.90;;;;;;6108963;22;20706;-86
2021/09/15 13:11:36;;;;;;;5.50;5.00;;;22.10;99.90;;;;;;6119698;23;21107;-87
2021/09/15 13:14:23;;;;;;;5.13;4.73;;;22.20;99.90;;;;;;6117381;23;20628;-86
2021/09/15 13:17:05;;;;;;;5.50;5.00;;;22.10;99.90;;;;;;6118846;22;21365;-86
2021/09/15 13:19:52;;;;;;;5.80;5.20;;;22.20;99.90;;;;;;6116936;23;20597;-85
2021/09/15 13:22:41;;;;;;;8.20;5.80;;;22.30;99.90;;;;;;6110948;23;20623;-86
2021/09/15 13:25:28;;;;;;;6.17;5.57;;;22.20;99.90;;;;;;6116568;23;21224;-86
2021/09/15 13:28:16;;;;;;;7.90;5.40;;;21.90;99.90;;;;;;6116013;22;20601;-85
2021/09/15 13:31:03;;;;;;;5.90;5.40;;;21.80;99.90;;;;;;6115318;22;20698;-85
2021/09/15 13:33:52;;;;;;;5.73;5.23;;;21.80;99.90;;;;;;6115928;22;21094;-85
2021/09/15 13:36:39;;;;;;;5.90;5.20;;;21.80;99.90;;;;;;6115015;23;20907;-85
2021/09/15 13:39:28;;;;;;;5.13;4.70;;;21.70;99.90;;;;;;6107369;23;20670;-85
2021/09/15 13:42:15;;;;;;;5.23;4.67;;;21.60;99.90;;;;;;6116429;22;20630;-84
2021/09/15 13:45:02;;;;;;;5.50;5.10;;;21.60;99.90;;;;;;6115776;22;20575;-85
2021/09/15 13:47:48;;;;;;;6.50;5.10;;;21.50;99.90;;;;;;6115744;23;21070;-85
2021/09/15 13:50:36;;;;;;;8.20;5.00;;;21.60;99.90;;;;;;6116337;22;21300;-84
2021/09/15 13:53:22;;;;;;;5.83;5.33;;;21.50;99.90;;;;;;6116510;22;20569;-84
2021/09/15 13:56:11;;;;;;;4.87;4.43;;;21.60;99.90;;;;;;6119284;23;20569;-86
2021/09/15 13:58:58;;;;;;;4.93;4.43;;;21.70;99.90;;;;;;6117193;23;20569;-85
2021/09/15 14:01:39;;;;;;;4.73;4.43;;;21.70;99.90;;;;;;6118154;23;20656;-85
2021/09/15 14:04:29;;;;;;;5.03;4.57;;;21.70;99.90;;;;;;6116355;23;20608;-85
2021/09/15 14:07:11;;;;;;;4.93;4.60;;;21.60;99.90;;;;;;6116192;23;20577;-85
2021/09/15 14:09:58;;;;;;;5.10;4.20;;;21.60;99.90;;;;;;6116573;23;20717;-85
2021/09/15 14:12:47;;;;;;;5.10;4.70;;;21.60;99.90;;;;;;6116316;23;20588;-85
2021/09/15 14:15:34;;;;;;;5.93;5.43;;;21.60;99.90;;;;;;6115168;23;20589;-85
2021/09/15 14:18:21;;;;;;;5.70;5.13;;;21.70;99.90;;;;;;6114988;23;21347;-84
2021/09/15 14:21:07;;;;;;;8.30;4.70;;;21.70;99.90;;;;;;6115457;23;20582;-85
2021/09/15 14:23:54;;;;;;;6.50;5.90;;;21.60;99.90;;;;;;6116823;23;20625;-86
2021/09/15 14:26:41;;;;;;;5.80;5.30;;;21.50;99.90;;;;;;6115759;22;20585;-86
2021/09/15 14:29:30;;;;;;;6.00;5.00;;;21.50;99.90;;;;;;6116881;23;20618;-86
2021/09/15 14:32:17;;;;;;;5.83;5.07;;;21.40;99.90;;;;;;6108082;23;21141;-85
2021/09/15 14:35:04;;;;;;;6.13;5.60;;;21.30;99.90;;;;;;6116965;22;20602;-85
2021/09/15 14:37:51;;;;;;;5.63;5.07;;;21.30;99.90;;;;;;6116264;23;21144;-86
2021/09/15 14:40:39;;;;;;;5.27;4.80;;;21.30;99.90;;;;;;6117161;22;20689;-85